createdAt,value
2023-03-29T00:02:54.676Z,0
2023-03-29T00:08:13.420Z,0
2023-03-29T00:13:32.533Z,0
2023-03-29T00:18:51.629Z,0
2023-03-29T00:24:10.612Z,0
2023-03-29T00:29:30.384Z,0
2023-03-29T00:40:08.605Z,0
2023-03-29T00:45:27.777Z,0
2023-03-29T00:50:46.719Z,0
2023-03-29T00:56:06.202Z,0
2023-03-29T01:01:25.990Z,0
2023-03-29T01:06:45.543Z,0
2023-03-29T01:12:05.036Z,0
2023-03-29T01:17:24.621Z,0
2023-03-29T01:22:43.428Z,0
2023-03-29T01:28:03.043Z,0
2023-03-29T01:33:22.190Z,0
2023-03-29T01:38:41.666Z,0
2023-03-29T01:44:00.465Z,0
2023-03-29T01:49:19.767Z,0
2023-03-29T01:54:39.148Z,0
2023-03-29T02:05:17.370Z,0
2023-03-29T02:15:55.984Z,0
2023-03-29T02:21:15.308Z,0
2023-03-29T02:26:34.905Z,0
2023-03-29T02:31:54.518Z,0
2023-03-29T02:37:14.325Z,0
2023-03-29T02:42:33.413Z,0
2023-03-29T02:47:52.584Z,0
2023-03-29T02:53:11.793Z,0
2023-03-29T03:03:50.983Z,0
2023-03-29T03:14:29.177Z,0
2023-03-29T03:19:48.252Z,0
2023-03-29T03:25:07.682Z,0
2023-03-29T03:30:27.059Z,0
2023-03-29T03:46:24.442Z,0
2023-03-29T03:51:43.867Z,0
2023-03-29T03:57:03.624Z,0
2023-03-29T04:02:22.359Z,0
2023-03-29T04:07:41.180Z,0
2023-03-29T04:13:00.513Z,0
2023-03-29T04:23:38.636Z,0
2023-03-29T04:34:16.979Z,0
2023-03-29T04:39:36.033Z,1
2023-03-29T04:44:55.117Z,5
2023-03-29T04:50:14.348Z,14
2023-03-29T04:55:33.960Z,40
2023-03-29T05:06:13.093Z,190
2023-03-29T05:11:32.408Z,325
2023-03-29T05:16:51.437Z,522
2023-03-29T05:22:10.268Z,747
2023-03-29T05:27:29.369Z,935
2023-03-29T05:32:48.904Z,1258
2023-03-29T05:38:08.552Z,1809
2023-03-29T05:43:27.748Z,1871
2023-03-29T05:48:46.844Z,2338
2023-03-29T05:54:05.784Z,2328
2023-03-29T05:59:25.295Z,2871
2023-03-29T06:04:44.809Z,3584
2023-03-29T06:10:03.719Z,2797
2023-03-29T06:15:22.536Z,3275
2023-03-29T06:20:42.206Z,4158
2023-03-29T06:26:10.417Z,4030
2023-03-29T06:31:21.361Z,5100
2023-03-29T06:36:40.760Z,5630
2023-03-29T06:42:02.075Z,6149
2023-03-29T06:47:18.878Z,6985
2023-03-29T06:52:38.083Z,7692
2023-03-29T06:57:59.104Z,6932
2023-03-29T07:03:16.884Z,7495
2023-03-29T07:08:35.811Z,9348
2023-03-29T07:13:54.576Z,10822
2023-03-29T07:19:13.611Z,9203
2023-03-29T07:29:51.893Z,11695
2023-03-29T07:35:11.176Z,10640
2023-03-29T07:40:30.658Z,11532
2023-03-29T07:45:49.928Z,12727
2023-03-29T07:51:08.820Z,10546
2023-03-29T07:56:27.702Z,9645
2023-03-29T08:01:47.231Z,9982
2023-03-29T08:12:26.039Z,11239
2023-03-29T08:23:04.633Z,16706
2023-03-29T08:28:23.924Z,15296
2023-03-29T08:33:43.431Z,13149
2023-03-29T08:39:02.877Z,13435
2023-03-29T08:44:22.169Z,15801
2023-03-29T08:49:41.211Z,17763
2023-03-29T08:55:00.735Z,15317
2023-03-29T09:00:19.917Z,13952
2023-03-29T09:10:57.848Z,16835
2023-03-29T09:21:36.429Z,17251
2023-03-29T09:26:55.990Z,16327
2023-03-29T09:32:14.783Z,16441
2023-03-29T09:37:33.892Z,16068
2023-03-29T09:42:53.198Z,17620
2023-03-29T09:53:32.030Z,17880
2023-03-29T09:58:51.642Z,15839
2023-03-29T10:04:10.836Z,17482
2023-03-29T10:09:30.785Z,18603
2023-03-29T10:14:52.276Z,19076
2023-03-29T10:20:10.204Z,18660
2023-03-29T10:25:29.277Z,15599
2023-03-29T10:30:48.238Z,17491
2023-03-29T10:36:07.559Z,17270
2023-03-29T10:41:26.674Z,17515
2023-03-29T10:48:00.834Z,19990
2023-03-29T10:57:26.287Z,22892
2023-03-29T11:02:45.244Z,19843
2023-03-29T11:08:04.275Z,22451
2023-03-29T11:13:23.486Z,25639
2023-03-29T11:18:43.142Z,30529
2023-03-29T11:24:02.021Z,23455
2023-03-29T11:29:21.324Z,15719
2023-03-29T11:34:40.864Z,19024
2023-03-29T11:39:59.849Z,18155
2023-03-29T11:45:18.641Z,19485
2023-03-29T11:50:37.730Z,22312
2023-03-29T11:55:56.567Z,19834
2023-03-29T12:01:16.049Z,19521
2023-03-29T12:06:35.220Z,14009
2023-03-29T12:11:53.426Z,14784
2023-03-29T12:17:12.130Z,15945
2023-03-29T12:22:31.287Z,17277
2023-03-29T12:27:50.587Z,16280
2023-03-29T12:33:09.975Z,19703
2023-03-29T12:38:30.801Z,20783
2023-03-29T12:43:49.046Z,14239
2023-03-29T12:49:08.022Z,23520
2023-03-29T12:54:28.310Z,25932
2023-03-29T12:59:47.103Z,14179
2023-03-29T13:10:25.252Z,20691
2023-03-29T13:15:44.106Z,18720
2023-03-29T13:21:03.024Z,16239
2023-03-29T13:26:21.978Z,16328
2023-03-29T13:31:41.240Z,21574
2023-03-29T13:36:59.982Z,22515
2023-03-29T13:42:18.968Z,22413
2023-03-29T13:52:56.594Z,12292
2023-03-29T14:03:34.450Z,16019
2023-03-29T14:08:54.054Z,14763
2023-03-29T14:14:13.321Z,16060
2023-03-29T14:19:32.172Z,16761
2023-03-29T14:24:51.624Z,13553
2023-03-29T14:25:17.622Z,13329
2023-03-29T14:30:36.880Z,12528
2023-03-29T14:35:56.145Z,13434
2023-03-29T14:41:15.116Z,18753
2023-03-29T14:46:34.085Z,16295
2023-03-29T14:51:53.650Z,14317
2023-03-29T14:57:12.281Z,11052
2023-03-29T15:02:31.884Z,12959
2023-03-29T15:07:50.737Z,10361
2023-03-29T15:13:09.591Z,13204
2023-03-29T15:18:28.415Z,9625
2023-03-29T15:23:47.643Z,8383
2023-03-29T15:29:06.673Z,7944
2023-03-29T15:34:26.375Z,7418
2023-03-29T15:39:45.725Z,7219
2023-03-29T15:45:05.066Z,6865
2023-03-29T15:50:24.722Z,6012
2023-03-29T15:55:44.246Z,4853
2023-03-29T16:06:22.759Z,4195
2023-03-29T16:11:41.876Z,3279
2023-03-29T16:17:00.954Z,3586
2023-03-29T16:22:19.652Z,3553
2023-03-29T16:27:39.237Z,3776
2023-03-29T16:32:58.380Z,3296
2023-03-29T16:38:17.935Z,2936
2023-03-29T16:43:37.598Z,1820
2023-03-29T16:48:56.996Z,1560
2023-03-29T16:54:16.341Z,1468
2023-03-29T16:59:35.263Z,1260
2023-03-29T17:04:54.542Z,1226
2023-03-29T17:10:14.151Z,835
2023-03-29T17:15:33.171Z,696
2023-03-29T17:20:51.898Z,557
2023-03-29T17:26:11.103Z,349
2023-03-29T17:31:30.491Z,227
2023-03-29T17:42:08.783Z,101
2023-03-29T17:52:47.660Z,36
2023-03-29T17:58:06.473Z,17
2023-03-29T18:03:25.515Z,7
2023-03-29T18:08:44.365Z,2
2023-03-29T18:14:03.192Z,0
2023-03-29T18:24:41.878Z,0
2023-03-29T18:30:00.781Z,0
2023-03-29T18:35:20.357Z,0
2023-03-29T18:40:39.465Z,0
2023-03-29T18:45:58.710Z,0
2023-03-29T18:51:17.588Z,0
2023-03-29T18:56:37.196Z,0
2023-03-29T19:07:15.635Z,0
2023-03-29T19:17:54.728Z,0
2023-03-29T19:23:13.647Z,0
2023-03-29T19:28:32.443Z,0
2023-03-29T19:33:51.643Z,0
2023-03-29T19:39:10.665Z,0
2023-03-29T19:44:29.529Z,0
2023-03-29T19:49:48.440Z,0
2023-03-29T19:55:07.225Z,0
2023-03-29T20:05:46.042Z,0
2023-03-29T20:11:04.936Z,0
2023-03-29T20:16:24.494Z,0
2023-03-29T20:21:44.115Z,0
2023-03-29T20:27:03.207Z,0
2023-03-29T20:32:22.409Z,0
2023-03-29T20:37:41.996Z,0
2023-03-29T20:48:20.645Z,0
2023-03-29T20:53:39.609Z,0
2023-03-29T20:58:59.224Z,0
2023-03-29T21:04:18.737Z,0
2023-03-29T21:09:38.316Z,0
2023-03-29T21:14:57.330Z,0
2023-03-29T21:20:17.107Z,0
2023-03-29T21:36:14.773Z,0
2023-03-29T21:41:33.810Z,0
2023-03-29T21:46:53.531Z,0
2023-03-29T21:52:12.410Z,0
2023-03-29T21:57:31.305Z,0
2023-03-29T22:02:50.049Z,0
2023-03-29T22:13:28.585Z,0
2023-03-29T22:24:06.543Z,0
2023-03-29T22:29:26.014Z,0
2023-03-29T22:34:45.309Z,0
2023-03-29T22:40:04.383Z,0
2023-03-29T22:45:23.297Z,0
2023-03-29T22:50:42.720Z,0
2023-03-29T22:56:02.162Z,0
2023-03-29T23:01:21.857Z,0
2023-03-29T23:06:41.250Z,0
2023-03-29T23:12:00.756Z,0
2023-03-29T23:17:20.446Z,0
2023-03-29T23:22:39.774Z,0
2023-03-29T23:27:58.702Z,0
2023-03-29T23:33:17.788Z,0
2023-03-29T23:38:36.556Z,0
2023-03-29T23:43:55.659Z,0
2023-03-29T23:54:34.379Z,0
2023-03-29T23:59:53.592Z,0
